Time;durP1;ratioP1;P1;durP2;ratioP2;P2;SDS_P1;SDS_P2;PMS_P1;PMS_P2;Temp;Humidity;BMP_temperature;BMP_pressure;BME280_temperature;BME280_humidity;BME280_pressure;Samples;Min_cycle;Max_cycle;Signal;HPM_P1;HPM_P2
2022/09/22 00:02:00;;;;;;;4.10;1.80;;;7.30;99.90;;;;;;5073974;28;20543;-40
2022/09/22 00:04:26;;;;;;;3.77;2.03;;;7.30;99.90;;;;;;5073870;28;20176;-38
2022/09/22 00:06:52;;;;;;;5.30;2.37;;;7.30;99.90;;;;;;5074067;28;20231;-40
2022/09/22 00:09:20;;;;;;;3.90;1.87;;;7.20;99.90;;;;;;5073722;28;20232;-42
2022/09/22 00:11:48;;;;;;;4.67;1.70;;;7.20;99.90;;;;;;5074506;28;20175;-40
2022/09/22 00:14:22;;;;;;;6.03;1.97;;;7.20;99.90;;;;;;5074112;28;20549;-40
2022/09/22 00:17:06;;;;;;;5.90;2.27;;;7.10;99.90;;;;;;5073475;28;20202;-40
2022/09/22 00:19:36;;;;;;;7.63;2.30;;;7.10;99.90;;;;;;5073958;28;20164;-39
2022/09/22 00:22:02;;;;;;;4.10;2.13;;;7.10;99.90;;;;;;5073921;28;20203;-40
2022/09/22 00:24:28;;;;;;;3.43;2.27;;;7.10;99.90;;;;;;5073642;28;20223;-40
2022/09/22 00:26:56;;;;;;;4.77;2.10;;;7.10;99.90;;;;;;5073884;28;20203;-37
2022/09/22 00:29:23;;;;;;;3.27;2.40;;;7.00;99.90;;;;;;5055748;28;20692;-41
2022/09/22 00:31:49;;;;;;;5.77;2.50;;;7.00;99.90;;;;;;5073569;28;20200;-40
2022/09/22 00:34:21;;;;;;;6.10;2.03;;;6.90;99.90;;;;;;5073543;28;20191;-40
2022/09/22 00:36:47;;;;;;;2.90;2.20;;;6.90;99.90;;;;;;5039619;28;20218;-39
2022/09/22 00:39:15;;;;;;;4.67;2.10;;;6.90;99.90;;;;;;5073729;28;20175;-42
2022/09/22 00:41:43;;;;;;;4.90;2.53;;;6.90;99.90;;;;;;5073617;28;20250;-41
2022/09/22 00:44:33;;;;;;;8.97;2.90;;;6.80;99.90;;;;;;5073491;28;20174;-39
2022/09/22 00:47:24;;;;;;;7.17;2.97;;;6.80;99.90;;;;;;5073425;28;20657;-40
2022/09/22 00:49:56;;;;;;;3.13;2.20;;;6.80;99.90;;;;;;5073165;28;20195;-39
2022/09/22 00:52:28;;;;;;;6.10;2.40;;;6.80;99.90;;;;;;5073349;28;20203;-39
2022/09/22 00:54:59;;;;;;;8.27;2.73;;;6.70;99.90;;;;;;5073194;28;20289;-40
2022/09/22 00:57:31;;;;;;;4.60;2.70;;;6.70;99.90;;;;;;5038993;28;20226;-40
2022/09/22 00:59:58;;;;;;;4.13;2.87;;;6.70;99.90;;;;;;5055095;28;20543;-40
2022/09/22 01:02:23;;;;;;;4.53;3.10;;;6.70;99.90;;;;;;5072836;28;20229;-38
2022/09/22 01:04:50;;;;;;;5.47;3.13;;;6.60;99.90;;;;;;5073201;28;20184;-37
2022/09/22 01:07:18;;;;;;;4.27;3.00;;;6.60;99.90;;;;;;5072825;28;20199;-38
2022/09/22 01:09:44;;;;;;;5.73;2.77;;;6.60;99.90;;;;;;5054670;28;20726;-40
2022/09/22 01:12:11;;;;;;;6.97;2.63;;;6.60;99.90;;;;;;5054803;28;20183;-39
2022/09/22 01:14:58;;;;;;;7.73;2.93;;;6.60;99.90;;;;;;5054983;28;20176;-39
2022/09/22 01:17:32;;;;;;;3.77;2.30;;;6.50;99.90;;;;;;5073333;28;20521;-41
2022/09/22 01:20:23;;;;;;;4.53;2.40;;;6.50;99.90;;;;;;5072830;28;20182;-41
2022/09/22 01:23:28;;;;;;;6.90;3.00;;;6.50;99.90;;;;;;5073236;28;20560;-40
2022/09/22 01:25:59;;;;;;;8.23;2.80;;;6.50;99.90;;;;;;5073284;28;20163;-39
2022/09/22 01:28:28;;;;;;;4.50;2.53;;;6.40;99.90;;;;;;5073666;28;20234;-38
2022/09/22 01:31:15;;;;;;;4.20;2.73;;;6.40;99.90;;;;;;5077444;28;20206;-39
2022/09/22 01:34:00;;;;;;;5.63;2.20;;;6.30;99.90;;;;;;5077257;28;20179;-40
2022/09/22 01:36:28;;;;;;;5.60;2.67;;;6.30;99.90;;;;;;5058795;28;20267;-38
2022/09/22 01:39:13;;;;;;;4.07;2.80;;;6.30;99.90;;;;;;5076876;28;20270;-38
2022/09/22 01:41:58;;;;;;;4.77;2.80;;;6.30;99.90;;;;;;5058572;28;20202;-41
2022/09/22 01:45:04;;;;;;;3.17;2.77;;;6.30;99.90;;;;;;5058779;28;20176;-37
2022/09/22 01:47:39;;;;;;;4.53;3.27;;;6.30;99.90;;;;;;5076579;28;20271;-37
2022/09/22 01:50:33;;;;;;;6.63;3.17;;;6.20;99.90;;;;;;5059780;28;20275;-40
2022/09/22 01:53:04;;;;;;;9.03;3.40;;;6.20;99.90;;;;;;5076840;28;20176;-38
2022/09/22 01:55:34;;;;;;;6.27;3.70;;;6.10;99.90;;;;;;5076811;28;20168;-40
2022/09/22 01:58:17;;;;;;;7.77;2.90;;;6.10;99.90;;;;;;5076500;28;20243;-39
2022/09/22 02:01:18;;;;;;;4.23;2.80;;;6.10;99.90;;;;;;5059650;28;20156;-39
2022/09/22 02:03:55;;;;;;;5.23;2.60;;;6.10;99.90;;;;;;5041936;28;20633;-40
2022/09/22 02:06:27;;;;;;;8.83;2.60;;;6.10;99.90;;;;;;5076588;28;20207;-41
2022/09/22 02:09:01;;;;;;;6.80;2.57;;;6.10;99.90;;;;;;5059132;28;20195;-39
2022/09/22 02:11:27;;;;;;;5.77;2.93;;;6.00;99.90;;;;;;5058149;28;20204;-39
2022/09/22 02:13:53;;;;;;;5.80;2.40;;;6.00;99.90;;;;;;5076463;28;20178;-37
2022/09/22 02:16:21;;;;;;;7.03;3.00;;;6.00;99.90;;;;;;5076557;28;20210;-39
2022/09/22 02:18:58;;;;;;;4.97;2.73;;;6.00;99.90;;;;;;5076131;28;20180;-38
2022/09/22 02:21:26;;;;;;;5.43;2.63;;;6.00;99.90;;;;;;5075956;28;20651;-39
2022/09/22 02:23:53;;;;;;;9.53;3.00;;;5.90;99.90;;;;;;5058669;28;20568;-42
2022/09/22 02:26:28;;;;;;;5.97;3.20;;;5.90;99.90;;;;;;5076535;28;20180;-39
2022/09/22 02:29:01;;;;;;;3.83;2.40;;;5.80;99.90;;;;;;5075974;28;20205;-39
2022/09/22 02:31:30;;;;;;;6.03;2.43;;;5.90;99.90;;;;;;5076469;28;20168;-39
2022/09/22 02:33:56;;;;;;;4.27;2.40;;;5.80;99.90;;;;;;5075699;28;20204;-38
2022/09/22 02:36:43;;;;;;;6.57;2.73;;;5.80;99.90;;;;;;5076056;28;20171;-41
2022/09/22 02:39:33;;;;;;;5.23;3.20;;;5.80;99.90;;;;;;5076029;28;20185;-40
2022/09/22 02:42:25;;;;;;;5.03;2.87;;;5.80;99.90;;;;;;5058245;28;20171;-41
2022/09/22 02:44:56;;;;;;;11.43;2.90;;;5.80;99.90;;;;;;5052890;28;20191;-41
2022/09/22 02:47:46;;;;;;;9.27;3.17;;;5.70;99.90;;;;;;5075638;28;20207;-39
2022/09/22 02:50:17;;;;;;;6.40;3.17;;;5.70;99.90;;;;;;5075956;28;20193;-42
2022/09/22 02:52:42;;;;;;;6.10;3.20;;;5.70;99.90;;;;;;5057382;28;20272;-42
2022/09/22 02:55:09;;;;;;;4.90;3.10;;;5.60;99.90;;;;;;5075775;28;20251;-41
2022/09/22 02:57:35;;;;;;;4.47;2.70;;;5.60;99.90;;;;;;5075619;28;20269;-38
2022/09/22 03:00:02;;;;;;;5.87;3.37;;;5.70;99.90;;;;;;5057407;28;20266;-37
2022/09/22 03:02:28;;;;;;;5.47;2.90;;;5.60;99.90;;;;;;5075398;28;20706;-38
2022/09/22 03:04:59;;;;;;;4.30;3.07;;;5.60;99.90;;;;;;5075473;28;20176;-38
2022/09/22 03:07:24;;;;;;;6.50;3.00;;;5.60;99.90;;;;;;5075162;28;20690;-41
2022/09/22 03:09:50;;;;;;;5.43;2.80;;;5.60;99.90;;;;;;5057275;28;20249;-40
2022/09/22 03:12:15;;;;;;;9.63;3.67;;;5.60;99.90;;;;;;5057271;28;20179;-38
2022/09/22 03:14:41;;;;;;;4.70;3.00;;;5.60;99.90;;;;;;5075380;28;20746;-39
2022/09/22 03:17:07;;;;;;;8.10;3.23;;;5.60;99.90;;;;;;5075269;28;20282;-40
2022/09/22 03:19:32;;;;;;;2.83;2.60;;;5.60;99.90;;;;;;5075148;28;20579;-40
2022/09/22 03:21:58;;;;;;;4.57;2.77;;;5.60;99.90;;;;;;5075115;28;20593;-37
2022/09/22 03:24:23;;;;;;;6.23;2.90;;;5.60;99.90;;;;;;5074998;28;20736;-40
2022/09/22 03:26:49;;;;;;;5.93;2.90;;;5.60;99.90;;;;;;5074835;28;20210;-39
2022/09/22 03:29:15;;;;;;;7.20;3.17;;;5.60;99.90;;;;;;5074706;28;20202;-39
2022/09/22 03:31:40;;;;;;;4.77;3.13;;;5.50;99.90;;;;;;5075077;28;20658;-41
2022/09/22 03:34:06;;;;;;;7.53;3.10;;;5.50;99.90;;;;;;5056743;28;20605;-38
2022/09/22 03:36:32;;;;;;;5.27;2.53;;;5.50;99.90;;;;;;5075267;28;20211;-38
2022/09/22 03:38:58;;;;;;;4.87;3.00;;;5.50;99.90;;;;;;5074795;28;20186;-39
2022/09/22 03:41:26;;;;;;;4.60;2.73;;;5.50;99.90;;;;;;5074123;28;20190;-40
2022/09/22 03:43:52;;;;;;;8.53;3.30;;;5.50;99.90;;;;;;5056947;28;20680;-37
2022/09/22 03:46:18;;;;;;;6.63;3.17;;;5.50;99.90;;;;;;5074824;28;20265;-40
2022/09/22 03:48:44;;;;;;;4.87;3.43;;;5.50;99.90;;;;;;5074304;28;20185;-39
2022/09/22 03:51:09;;;;;;;10.00;3.27;;;5.50;99.90;;;;;;5056108;28;20192;-40
2022/09/22 03:53:35;;;;;;;5.70;3.30;;;5.50;99.90;;;;;;5074308;28;20705;-38
2022/09/22 03:56:12;;;;;;;5.00;3.27;;;5.50;99.90;;;;;;5057221;28;20229;-38
2022/09/22 03:58:39;;;;;;;7.33;3.53;;;5.50;99.90;;;;;;5074858;28;20186;-41
2022/09/22 04:01:06;;;;;;;5.90;3.33;;;5.40;99.90;;;;;;5074254;28;20180;-41
2022/09/22 04:03:32;;;;;;;6.20;2.93;;;5.40;99.90;;;;;;5074430;28;20590;-41
2022/09/22 04:05:58;;;;;;;4.57;3.10;;;5.40;99.90;;;;;;5056471;28;20174;-42
2022/09/22 04:08:24;;;;;;;9.47;3.47;;;5.40;99.90;;;;;;5074307;28;20205;-42
2022/09/22 04:10:50;;;;;;;9.30;3.70;;;5.40;99.90;;;;;;5073784;28;20656;-42
2022/09/22 04:13:15;;;;;;;6.37;3.23;;;5.40;99.90;;;;;;5074229;28;20174;-37
2022/09/22 04:15:41;;;;;;;5.27;3.07;;;5.50;99.90;;;;;;5073874;28;20183;-38
2022/09/22 04:18:07;;;;;;;5.60;3.37;;;5.40;99.90;;;;;;5074030;28;20202;-38
2022/09/22 04:20:33;;;;;;;5.80;3.30;;;5.40;99.90;;;;;;5074278;28;20193;-40
2022/09/22 04:22:58;;;;;;;7.57;3.20;;;5.40;99.90;;;;;;5055859;28;20277;-43
2022/09/22 04:25:24;;;;;;;7.17;3.50;;;5.40;99.90;;;;;;5039558;28;20276;-38
2022/09/22 04:27:49;;;;;;;4.93;3.07;;;5.40;99.90;;;;;;5074415;28;20211;-39
2022/09/22 04:30:15;;;;;;;4.40;3.37;;;5.40;99.90;;;;;;5073647;28;20218;-40
2022/09/22 04:32:41;;;;;;;6.17;3.37;;;5.40;99.90;;;;;;5073856;28;20255;-41
2022/09/22 04:35:08;;;;;;;6.50;3.73;;;5.40;99.90;;;;;;5074560;28;20245;-38
2022/09/22 04:37:34;;;;;;;5.23;3.23;;;5.30;99.90;;;;;;5057794;28;20614;-41
2022/09/22 04:39:59;;;;;;;4.93;3.00;;;5.30;99.90;;;;;;5074348;28;20205;-40
2022/09/22 04:42:25;;;;;;;4.27;3.20;;;5.30;99.90;;;;;;5073581;28;20665;-39
2022/09/22 04:44:51;;;;;;;3.57;2.77;;;5.20;99.90;;;;;;5073877;28;20211;-40
2022/09/22 04:47:17;;;;;;;4.03;3.20;;;5.20;99.90;;;;;;5073776;28;20233;-39
2022/09/22 04:49:43;;;;;;;7.03;3.77;;;5.20;99.90;;;;;;5073546;28;20543;-39
2022/09/22 04:52:08;;;;;;;5.30;3.27;;;5.10;99.90;;;;;;5073491;28;20535;-37
2022/09/22 04:54:34;;;;;;;5.47;3.07;;;5.10;99.90;;;;;;5055469;28;20185;-39
2022/09/22 04:57:00;;;;;;;3.83;2.90;;;5.10;99.90;;;;;;5073080;28;20241;-38
2022/09/22 04:59:25;;;;;;;6.80;3.17;;;5.10;99.90;;;;;;5073228;28;20644;-39
2022/09/22 05:01:51;;;;;;;5.73;3.03;;;5.00;99.90;;;;;;5055292;28;20262;-42
2022/09/22 05:04:17;;;;;;;3.63;2.93;;;5.00;99.90;;;;;;5072432;28;20205;-39
2022/09/22 05:06:42;;;;;;;6.83;3.50;;;5.00;99.90;;;;;;5073287;28;20315;-36
2022/09/22 05:09:08;;;;;;;4.30;2.73;;;5.00;99.90;;;;;;5055078;28;20691;-38
2022/09/22 05:11:33;;;;;;;3.80;3.00;;;4.90;99.90;;;;;;5072992;28;20317;-39
2022/09/22 05:13:59;;;;;;;4.10;3.00;;;4.90;99.90;;;;;;5073049;28;20173;-40
2022/09/22 05:16:25;;;;;;;3.90;2.80;;;4.80;99.90;;;;;;5073066;28;20157;-38
2022/09/22 05:18:51;;;;;;;5.63;2.77;;;4.80;99.90;;;;;;5054929;28;20591;-39
2022/09/22 05:21:19;;;;;;;3.70;2.77;;;4.80;99.90;;;;;;5073232;28;20179;-40
2022/09/22 05:23:46;;;;;;;3.10;2.67;;;4.80;99.90;;;;;;5073122;28;20176;-41
2022/09/22 05:26:11;;;;;;;4.60;2.80;;;4.80;99.90;;;;;;5055079;28;20183;-40
2022/09/22 05:28:37;;;;;;;3.73;2.60;;;4.80;99.90;;;;;;5073148;28;20255;-40
2022/09/22 05:31:03;;;;;;;4.03;2.70;;;4.80;99.90;;;;;;5072808;28;20207;-42
2022/09/22 05:33:29;;;;;;;4.30;2.93;;;4.70;99.90;;;;;;5073327;28;20690;-39
2022/09/22 05:35:55;;;;;;;3.47;2.97;;;4.70;99.90;;;;;;5073025;28;20184;-38
2022/09/22 05:38:20;;;;;;;2.90;2.40;;;4.70;99.90;;;;;;5072961;28;20187;-37
2022/09/22 05:40:46;;;;;;;8.67;3.40;;;4.70;99.90;;;;;;5073490;28;20174;-38
2022/09/22 05:43:12;;;;;;;4.87;2.93;;;4.70;99.90;;;;;;5073055;28;20300;-38
2022/09/22 05:45:45;;;;;;;3.90;2.90;;;4.70;99.90;;;;;;5071845;28;20206;-39
2022/09/22 05:48:11;;;;;;;3.67;2.67;;;4.70;99.90;;;;;;5072928;28;20212;-37
2022/09/22 05:50:37;;;;;;;3.27;2.53;;;4.70;99.90;;;;;;5054634;28;20203;-39
2022/09/22 05:53:08;;;;;;;8.63;2.73;;;4.70;99.90;;;;;;5072561;28;20196;-37
2022/09/22 05:55:35;;;;;;;6.57;3.00;;;4.70;99.90;;;;;;5073239;28;20173;-40
2022/09/22 05:58:01;;;;;;;3.87;2.30;;;4.70;99.90;;;;;;5072686;28;20199;-39
2022/09/22 06:00:27;;;;;;;4.60;2.57;;;4.80;99.90;;;;;;5038022;28;20562;-38
2022/09/22 06:02:53;;;;;;;3.97;2.80;;;4.80;99.90;;;;;;5072636;28;20633;-40
2022/09/22 06:05:19;;;;;;;3.90;2.80;;;4.80;99.90;;;;;;5072547;28;20197;-41
2022/09/22 06:07:45;;;;;;;6.50;3.00;;;4.80;99.90;;;;;;5054661;28;20196;-39
2022/09/22 06:10:11;;;;;;;5.07;3.00;;;4.80;99.90;;;;;;5054673;28;20231;-38
2022/09/22 06:12:37;;;;;;;5.03;3.40;;;4.80;99.90;;;;;;5054503;28;20193;-40
2022/09/22 06:15:04;;;;;;;3.53;2.90;;;4.90;99.90;;;;;;5055658;28;20256;-39
2022/09/22 06:17:30;;;;;;;4.80;3.03;;;4.90;99.90;;;;;;5076293;28;20203;-38
2022/09/22 06:19:56;;;;;;;5.97;3.03;;;5.00;99.90;;;;;;5059511;28;20183;-46
2022/09/22 06:22:23;;;;;;;4.50;3.20;;;5.00;99.90;;;;;;5062325;28;20189;-42
2022/09/22 06:24:49;;;;;;;3.43;2.97;;;5.00;99.90;;;;;;5062831;28;20180;-44
2022/09/22 06:27:14;;;;;;;8.20;3.27;;;5.10;99.90;;;;;;5061913;28;20205;-45
2022/09/22 06:29:41;;;;;;;6.00;2.83;;;5.10;99.90;;;;;;5062405;28;20231;-43
2022/09/22 06:32:07;;;;;;;5.83;3.47;;;5.20;99.90;;;;;;5062873;28;20174;-44
2022/09/22 06:34:34;;;;;;;4.93;3.23;;;5.30;99.90;;;;;;5079848;28;20181;-42
2022/09/22 06:36:59;;;;;;;6.10;3.30;;;5.30;99.90;;;;;;5062020;28;20207;-45
2022/09/22 06:39:25;;;;;;;4.93;3.27;;;5.40;99.90;;;;;;5080655;28;20185;-44
2022/09/22 06:41:51;;;;;;;9.43;3.77;;;5.60;99.90;;;;;;5080272;28;20300;-43
2022/09/22 06:44:16;;;;;;;6.93;3.80;;;5.60;99.90;;;;;;5081444;28;20654;-44
2022/09/22 06:46:42;;;;;;;8.80;3.73;;;5.70;99.90;;;;;;5063622;28;20645;-44
2022/09/22 06:49:08;;;;;;;8.00;3.53;;;5.90;99.90;;;;;;5063033;28;20222;-43
2022/09/22 07:00:02;;;;;;;7.57;3.87;;;6.50;99.90;;;;;;5052789;28;20642;-38
2022/09/22 07:02:28;;;;;;;5.03;4.10;;;6.60;99.90;;;;;;5055708;28;20652;-40
2022/09/22 07:04:57;;;;;;;6.57;4.20;;;6.80;99.90;;;;;;5055372;28;20208;-37
2022/09/22 07:07:27;;;;;;;7.40;4.30;;;6.90;99.90;;;;;;5065350;28;20254;-39
2022/09/22 07:09:54;;;;;;;9.33;4.13;;;7.10;99.90;;;;;;5077460;28;20672;-42
2022/09/22 07:12:21;;;;;;;9.30;4.60;;;7.20;99.90;;;;;;5095797;28;20191;-39
2022/09/22 07:14:48;;;;;;;10.63;4.63;;;7.30;99.90;;;;;;5096259;28;20169;-38
2022/09/22 07:17:15;;;;;;;6.57;4.10;;;7.40;99.90;;;;;;5095825;28;20192;-38
2022/09/22 07:19:40;;;;;;;8.93;5.17;;;7.50;99.90;;;;;;5095220;28;20172;-38
2022/09/22 07:22:07;;;;;;;10.43;5.27;;;7.70;99.90;;;;;;5095167;28;20212;-40
2022/09/22 07:24:32;;;;;;;4.87;3.63;;;7.80;99.90;;;;;;5095390;28;20556;-38
2022/09/22 07:27:03;;;;;;;5.87;3.97;;;7.90;99.90;;;;;;5094399;28;20201;-38
2022/09/22 07:29:28;;;;;;;12.23;4.17;;;8.00;99.90;;;;;;5076953;28;20276;-39
2022/09/22 07:31:55;;;;;;;10.13;4.87;;;8.20;99.90;;;;;;5076935;28;20215;-39
2022/09/22 07:34:21;;;;;;;13.77;4.83;;;8.20;99.90;;;;;;5095201;28;20174;-39
2022/09/22 07:36:48;;;;;;;6.60;4.83;;;8.40;99.90;;;;;;5094875;28;20723;-39
2022/09/22 07:39:14;;;;;;;6.50;4.70;;;8.60;99.90;;;;;;5094847;28;20658;-38
2022/09/22 07:41:42;;;;;;;7.20;4.43;;;8.70;99.90;;;;;;5095077;28;20222;-37
2022/09/22 07:46:59;;;;;;;14.13;5.07;;;9.00;99.90;;;;;;5095307;28;20743;-40
2022/09/22 07:49:25;;;;;;;11.63;6.03;;;9.10;99.90;;;;;;5094500;28;20215;-40
2022/09/22 07:51:56;;;;;;;9.80;5.93;;;9.30;99.90;;;;;;5076791;28;20178;-39
2022/09/22 07:54:25;;;;;;;7.70;4.60;;;9.50;99.90;;;;;;5094682;28;20246;-40
2022/09/22 07:56:54;;;;;;;7.93;5.30;;;9.70;99.90;;;;;;5094768;28;20216;-41
2022/09/22 07:59:20;;;;;;;7.40;5.90;;;9.80;99.90;;;;;;5094433;28;20541;-40
2022/09/22 08:01:48;;;;;;;11.13;6.70;;;9.90;99.90;;;;;;5094942;28;20190;-39
2022/09/22 08:04:19;;;;;;;17.23;7.03;;;10.00;99.90;;;;;;5094682;28;20183;-40
2022/09/22 08:06:47;;;;;;;14.93;7.67;;;10.10;99.90;;;;;;5094582;28;20194;-39
2022/09/22 08:09:13;;;;;;;8.63;6.57;;;10.30;99.90;;;;;;5094590;28;20237;-39
2022/09/22 08:11:39;;;;;;;9.53;5.97;;;10.40;99.90;;;;;;5094368;28;20210;-38
2022/09/22 08:14:07;;;;;;;14.13;6.30;;;10.50;99.90;;;;;;5076135;28;20205;-39
2022/09/22 08:16:35;;;;;;;13.43;6.80;;;10.60;99.90;;;;;;5094235;28;20214;-38
2022/09/22 08:19:11;;;;;;;8.40;5.37;;;10.70;99.90;;;;;;5094274;28;20186;-39
2022/09/22 08:21:38;;;;;;;10.73;6.63;;;10.80;99.90;;;;;;5094396;28;20167;-41
2022/09/22 08:24:06;;;;;;;7.13;5.07;;;10.90;99.90;;;;;;5094481;28;20179;-38
2022/09/22 08:26:32;;;;;;;7.57;4.93;;;11.10;99.90;;;;;;5093913;28;20199;-40
2022/09/22 08:28:58;;;;;;;9.73;4.63;;;11.20;99.90;;;;;;5093989;28;20327;-39
2022/09/22 08:31:25;;;;;;;8.70;4.30;;;11.40;99.90;;;;;;5094143;28;20224;-40
2022/09/22 08:33:52;;;;;;;9.43;5.33;;;11.50;99.90;;;;;;5093811;28;20175;-40
2022/09/22 08:36:18;;;;;;;8.47;4.33;;;11.60;99.90;;;;;;5093903;28;20211;-40
2022/09/22 08:38:48;;;;;;;5.37;3.70;;;11.70;99.90;;;;;;5093730;28;20253;-41
2022/09/22 08:41:36;;;;;;;9.20;3.60;;;11.80;99.90;;;;;;5093785;28;20182;-40
2022/09/22 08:44:05;;;;;;;5.57;3.67;;;11.90;99.90;;;;;;5094401;28;20214;-40
2022/09/22 08:46:33;;;;;;;5.60;3.30;;;12.00;99.90;;;;;;5095038;28;20182;-43
2022/09/22 08:52:42;;;;;;;6.30;2.80;;;12.40;99.90;;;;;;5094436;28;20673;-42
2022/09/22 08:55:29;;;;;;;6.47;2.83;;;12.60;99.90;;;;;;5093663;28;20192;-42
2022/09/22 08:58:19;;;;;;;3.20;2.47;;;12.70;99.90;;;;;;5093706;28;20208;-41
2022/09/22 09:00:54;;;;;;;4.63;2.30;;;12.90;99.90;;;;;;5075316;28;20190;-39
2022/09/22 09:03:49;;;;;;;6.33;2.07;;;13.10;99.90;;;;;;5075355;28;20556;-42
2022/09/22 09:06:22;;;;;;;1.80;1.70;;;13.30;99.90;;;;;;5004322;28;20607;-40
2022/09/22 09:09:09;;;;;;;4.03;1.93;;;13.40;99.90;;;;;;5093639;28;20521;-39
2022/09/22 09:12:02;;;;;;;5.00;1.70;;;13.60;99.90;;;;;;5075152;28;20523;-39
2022/09/22 09:14:30;;;;;;;3.90;1.90;;;13.80;99.90;;;;;;5094299;28;20174;-37
2022/09/22 09:17:13;;;;;;;7.63;1.80;;;13.90;99.90;;;;;;5093133;28;20194;-40
2022/09/22 09:19:46;;;;;;;6.93;1.57;;;14.10;99.90;;;;;;5093174;28;20180;-39
2022/09/22 09:22:24;;;;;;;4.70;1.87;;;14.20;99.90;;;;;;5093154;28;20175;-40
2022/09/22 09:24:58;;;;;;;3.13;1.67;;;14.40;99.90;;;;;;5093441;28;20175;-39
2022/09/22 09:27:28;;;;;;;2.13;1.27;;;14.40;99.90;;;;;;5093552;28;20205;-39
2022/09/22 09:30:00;;;;;;;4.83;1.50;;;14.60;99.90;;;;;;5093272;28;20229;-41
2022/09/22 09:32:42;;;;;;;2.67;1.50;;;14.80;99.90;;;;;;5075036;28;20179;-38
2022/09/22 09:35:13;;;;;;;2.67;1.30;;;14.90;99.90;;;;;;5093104;28;20166;-41
2022/09/22 09:37:41;;;;;;;3.87;1.10;;;15.00;99.90;;;;;;5092950;28;20209;-39
2022/09/22 09:40:14;;;;;;;2.27;1.13;;;15.20;99.90;;;;;;5092936;28;20187;-40
2022/09/22 09:42:41;;;;;;;1.90;1.40;;;15.40;99.90;;;;;;5092964;28;20626;-40
2022/09/22 09:45:14;;;;;;;3.93;1.30;;;15.50;99.90;;;;;;5092925;28;20182;-40
2022/09/22 09:48:02;;;;;;;3.93;1.30;;;15.60;99.90;;;;;;5093067;28;20198;-39
2022/09/22 09:50:30;;;;;;;7.70;1.20;;;15.80;99.90;;;;;;5095004;28;20190;-38
2022/09/22 09:52:58;;;;;;;1.27;1.00;;;15.90;99.90;;;;;;5097241;28;20183;-41
2022/09/22 09:55:25;;;;;;;4.30;1.00;;;16.00;99.90;;;;;;5096868;28;20257;-40
2022/09/22 10:00:29;;;;;;;1.00;0.90;;;16.10;99.90;;;;;;5096878;28;20210;-39
2022/09/22 10:00:59;;;;;;;1.97;1.00;;;16.20;99.90;;;;;;5096571;28;20194;-40
2022/09/22 10:03:35;;;;;;;2.13;1.30;;;16.30;99.90;;;;;;5096761;28;20183;-40
2022/09/22 10:06:07;;;;;;;5.90;1.57;;;16.40;99.90;;;;;;5096807;28;20679;-39
2022/09/22 10:08:43;;;;;;;1.67;1.00;;;16.60;99.90;;;;;;5096534;28;20241;-41
2022/09/22 10:11:11;;;;;;;4.27;0.70;;;16.70;99.90;;;;;;5097334;28;20271;-38
2022/09/22 10:13:38;;;;;;;2.70;0.83;;;16.70;99.90;;;;;;5096581;28;20254;-41
2022/09/22 10:16:20;;;;;;;0.90;0.80;;;16.80;99.90;;;;;;5096442;28;20194;-39
2022/09/22 10:18:47;;;;;;;1.23;0.80;;;16.90;99.90;;;;;;5096785;28;20251;-41
2022/09/22 10:21:19;;;;;;;1.73;0.70;;;17.00;99.90;;;;;;5096636;28;20652;-37
2022/09/22 10:23:54;;;;;;;1.90;0.90;;;17.20;99.90;;;;;;5096350;28;20201;-43
2022/09/22 10:26:30;;;;;;;2.73;0.80;;;17.20;99.90;;;;;;5096289;28;20167;-42
2022/09/22 10:29:11;;;;;;;1.17;0.70;;;17.30;99.90;;;;;;5096207;28;20183;-41
2022/09/22 10:31:38;;;;;;;2.47;0.87;;;17.40;99.90;;;;;;5096318;28;20175;-39
2022/09/22 10:34:05;;;;;;;1.40;0.80;;;17.50;99.90;;;;;;5096207;28;20678;-42
2022/09/22 10:36:34;;;;;;;0.80;0.70;;;17.60;99.90;;;;;;5096112;28;20179;-39
2022/09/22 10:39:01;;;;;;;0.63;0.60;;;17.60;99.90;;;;;;5096150;28;20636;-39
2022/09/22 10:41:32;;;;;;;3.23;0.70;;;17.80;99.90;;;;;;5096320;28;20179;-40
2022/09/22 10:44:13;;;;;;;0.97;0.87;;;17.90;99.90;;;;;;5096001;28;20178;-39
2022/09/22 10:46:50;;;;;;;0.60;0.60;;;18.00;99.90;;;;;;5096185;28;20195;-42
2022/09/22 10:49:22;;;;;;;1.37;0.80;;;18.10;99.90;;;;;;5095863;28;20203;-42
2022/09/22 10:52:17;;;;;;;1.23;0.77;;;18.20;99.90;;;;;;5095891;28;20257;-41
2022/09/22 10:55:24;;;;;;;1.67;0.80;;;18.30;99.90;;;;;;5096128;28;20194;-42
2022/09/22 10:57:53;;;;;;;2.10;0.90;;;18.40;99.90;;;;;;5064396;28;20255;-38
2022/09/22 11:00:24;;;;;;;1.07;0.73;;;18.50;99.90;;;;;;5077883;28;20252;-41
2022/09/22 11:03:07;;;;;;;3.13;0.70;;;18.60;99.90;;;;;;5094615;28;20217;-43
2022/09/22 11:12:16;;;;;;;1.30;1.00;;;18.80;99.90;;;;;;5095843;28;20709;-42
2022/09/22 11:15:17;;;;;;;1.63;1.20;;;18.90;99.90;;;;;;5095549;28;20624;-40
2022/09/22 11:17:53;;;;;;;1.43;1.00;;;19.00;99.90;;;;;;5095540;28;20198;-40
2022/09/22 11:20:35;;;;;;;1.60;1.00;;;19.10;99.90;;;;;;5095565;28;20163;-40
2022/09/22 11:23:34;;;;;;;1.83;1.10;;;19.10;99.90;;;;;;5095844;28;20182;-42
2022/09/22 11:26:24;;;;;;;1.60;1.00;;;19.20;99.90;;;;;;5095245;28;20254;-43
2022/09/22 11:29:27;;;;;;;2.60;1.47;;;19.30;99.90;;;;;;5095448;28;20182;-41
2022/09/22 11:32:01;;;;;;;2.40;1.07;;;19.40;99.90;;;;;;5095339;28;20178;-42
2022/09/22 11:34:43;;;;;;;2.97;1.03;;;19.50;99.90;;;;;;5095233;28;20530;-42
2022/09/22 11:37:24;;;;;;;1.70;1.23;;;19.60;99.90;;;;;;5095166;28;20201;-42
2022/09/22 11:40:01;;;;;;;1.43;1.30;;;19.80;99.90;;;;;;5094985;28;20167;-41
2022/09/22 11:42:49;;;;;;;2.23;1.13;;;19.80;99.90;;;;;;5095165;28;20167;-41
2022/09/22 11:45:27;;;;;;;1.87;1.30;;;19.90;99.90;;;;;;5061537;28;20183;-43
2022/09/22 11:48:11;;;;;;;4.03;1.80;;;20.00;99.90;;;;;;5095306;28;20651;-41
2022/09/22 11:50:43;;;;;;;4.43;1.50;;;20.00;99.90;;;;;;5094658;28;20674;-41
2022/09/22 11:53:19;;;;;;;1.40;1.30;;;20.10;99.90;;;;;;5094986;28;20700;-41
2022/09/22 11:56:11;;;;;;;1.97;1.37;;;20.20;99.90;;;;;;5094966;28;20151;-42
2022/09/22 11:58:39;;;;;;;1.53;1.40;;;20.30;99.90;;;;;;5082995;28;20671;-43
2022/09/22 12:01:18;;;;;;;2.33;1.50;;;20.30;99.90;;;;;;5094527;28;20213;-42
2022/09/22 12:04:12;;;;;;;2.93;1.50;;;20.40;99.90;;;;;;5094551;28;20632;-41
2022/09/22 12:06:43;;;;;;;2.23;1.40;;;20.50;99.90;;;;;;5005053;28;20214;-40
2022/09/22 12:09:30;;;;;;;3.60;1.40;;;20.50;99.90;;;;;;5094607;28;20174;-41
2022/09/22 12:11:56;;;;;;;3.17;1.50;;;20.50;99.90;;;;;;5094731;28;20155;-41
2022/09/22 12:14:23;;;;;;;3.60;1.20;;;20.50;99.90;;;;;;5094084;28;20163;-41
2022/09/22 12:16:54;;;;;;;2.03;1.40;;;20.50;99.90;;;;;;5094210;28;20226;-42
2022/09/22 12:19:28;;;;;;;3.30;1.60;;;20.50;99.90;;;;;;5094255;28;20179;-42
2022/09/22 12:22:10;;;;;;;2.70;1.40;;;20.60;99.90;;;;;;5094550;28;20192;-42
2022/09/22 12:24:35;;;;;;;1.90;1.20;;;20.60;99.90;;;;;;5094454;28;20258;-43
2022/09/22 12:27:18;;;;;;;3.57;1.50;;;20.70;99.90;;;;;;5094508;28;20230;-41
2022/09/22 12:29:45;;;;;;;3.33;1.70;;;20.70;99.90;;;;;;5094233;28;20220;-42
2022/09/22 12:32:22;;;;;;;2.30;1.40;;;20.80;99.90;;;;;;5094414;28;20241;-41
2022/09/22 12:34:48;;;;;;;1.50;1.20;;;20.90;99.90;;;;;;5094288;28;20167;-41
2022/09/22 12:37:35;;;;;;;3.87;1.27;;;20.90;99.90;;;;;;5093870;28;20290;-41
2022/09/22 12:40:27;;;;;;;1.10;1.07;;;20.80;99.90;;;;;;5094200;28;20171;-41
2022/09/22 12:42:53;;;;;;;2.17;1.27;;;20.90;99.90;;;;;;5094114;28;20202;-42
2022/09/22 12:45:33;;;;;;;1.87;1.20;;;20.90;99.90;;;;;;5093969;28;20187;-43
2022/09/22 12:48:06;;;;;;;4.83;1.40;;;21.00;99.90;;;;;;5094190;28;20305;-41
2022/09/22 12:50:43;;;;;;;2.70;1.30;;;21.10;99.90;;;;;;5095291;28;20282;-43
2022/09/22 12:53:21;;;;;;;4.27;1.20;;;21.20;99.90;;;;;;5095580;28;20178;-46
2022/09/22 12:55:55;;;;;;;1.67;1.23;;;21.30;99.90;;;;;;5094153;28;20166;-41
2022/09/22 12:58:21;;;;;;;3.00;1.10;;;21.50;99.90;;;;;;5093388;28;20695;-41
2022/09/22 13:00:49;;;;;;;1.73;0.97;;;21.40;99.90;;;;;;5093742;28;20234;-39
2022/09/22 13:03:24;;;;;;;4.47;1.40;;;21.30;99.90;;;;;;5093673;28;20175;-40
2022/09/22 13:06:02;;;;;;;6.17;1.60;;;21.30;99.90;;;;;;5093398;28;20178;-42
2022/09/22 13:08:30;;;;;;;3.33;1.10;;;21.40;99.90;;;;;;5093560;28;20230;-42
2022/09/22 13:11:00;;;;;;;2.07;1.30;;;21.50;99.90;;;;;;5093497;28;20300;-43
2022/09/22 13:13:28;;;;;;;2.67;1.50;;;21.50;99.90;;;;;;5093229;28;20194;-40
2022/09/22 13:15:56;;;;;;;1.53;1.00;;;21.60;99.90;;;;;;5093245;28;20183;-41
2022/09/22 13:18:28;;;;;;;1.33;1.23;;;21.60;99.90;;;;;;5093439;28;20199;-43
2022/09/22 13:20:53;;;;;;;2.30;1.20;;;21.50;99.90;;;;;;5093604;28;20210;-42
2022/09/22 13:23:19;;;;;;;2.13;1.10;;;21.60;99.90;;;;;;5094013;28;20236;-43
2022/09/22 13:25:44;;;;;;;1.80;1.20;;;21.60;99.90;;;;;;5092662;28;20175;-41
2022/09/22 13:28:26;;;;;;;2.33;1.00;;;21.60;99.90;;;;;;5094002;28;20199;-40
2022/09/22 13:31:13;;;;;;;2.23;1.20;;;21.60;99.90;;;;;;5093787;28;20667;-46
2022/09/22 13:33:39;;;;;;;2.50;1.10;;;21.70;99.90;;;;;;5093621;28;20668;-46
2022/09/22 13:36:19;;;;;;;1.53;1.07;;;21.70;99.90;;;;;;5093594;28;20202;-46
2022/09/22 13:38:54;;;;;;;1.20;1.10;;;21.70;99.90;;;;;;5093594;28;20163;-45